createdAt,value
2023-02-03T00:00:14.467Z,7.64
2023-02-03T00:01:14.469Z,7.65
2023-02-03T00:02:14.479Z,7.66
2023-02-03T00:03:14.626Z,7.67
2023-02-03T00:04:14.434Z,7.68
2023-02-03T00:05:14.428Z,7.69
2023-02-03T00:06:14.397Z,7.69
2023-02-03T00:07:14.669Z,7.69
2023-02-03T00:08:14.434Z,7.70
2023-02-03T00:09:14.394Z,7.70
2023-02-03T00:10:14.357Z,7.71
2023-02-03T00:11:14.757Z,7.72
2023-02-03T00:12:14.324Z,7.74
2023-02-03T00:13:14.359Z,7.75
2023-02-03T00:14:14.706Z,7.76
2023-02-03T00:15:14.877Z,7.78
2023-02-03T00:16:14.318Z,7.79
2023-02-03T00:17:14.390Z,7.80
2023-02-03T00:18:14.258Z,7.82
2023-02-03T00:19:15.940Z,7.83
2023-02-03T00:20:14.269Z,7.84
2023-02-03T00:21:14.248Z,7.85
2023-02-03T00:22:15.059Z,7.86
2023-02-03T00:23:14.946Z,7.87
2023-02-03T00:24:14.189Z,7.87
2023-02-03T00:25:15.058Z,7.88
2023-02-03T00:26:14.184Z,7.88
2023-02-03T00:27:14.219Z,7.89
2023-02-03T00:28:14.221Z,7.89
2023-02-03T00:29:14.154Z,7.90
2023-02-03T00:30:14.303Z,7.90
2023-02-03T00:31:14.217Z,7.90
2023-02-03T00:32:14.175Z,7.90
2023-02-03T00:33:14.392Z,7.90
2023-02-03T00:34:14.079Z,7.91
2023-02-03T00:35:14.157Z,7.91
2023-02-03T00:36:14.072Z,7.92
2023-02-03T00:37:14.079Z,7.92
2023-02-03T00:38:14.052Z,7.92
2023-02-03T00:39:14.152Z,7.92
2023-02-03T00:40:13.999Z,7.92
2023-02-03T00:41:14.018Z,7.92
2023-02-03T00:42:13.998Z,7.93
2023-02-03T00:43:14.149Z,7.93
2023-02-03T00:44:13.947Z,7.93
2023-02-03T00:45:13.967Z,7.94
2023-02-03T00:46:13.960Z,7.94
2023-02-03T00:47:13.957Z,7.95
2023-02-03T00:48:14.157Z,7.95
2023-02-03T00:49:14.821Z,7.96
2023-02-03T00:50:14.154Z,7.96
2023-02-03T00:51:14.159Z,7.95
2023-02-03T00:52:13.869Z,7.95
2023-02-03T00:53:13.883Z,7.96
2023-02-03T00:54:13.871Z,7.96
2023-02-03T00:55:13.903Z,7.96
2023-02-03T00:56:13.821Z,7.96
2023-02-03T00:57:13.953Z,7.96
2023-02-03T00:58:13.820Z,7.96
2023-02-03T00:59:14.003Z,7.95
2023-02-03T01:00:13.819Z,7.95
2023-02-03T01:01:13.815Z,7.95
2023-02-03T01:02:14.096Z,7.95
2023-02-03T01:03:13.759Z,7.95
2023-02-03T01:04:14.126Z,7.95
2023-02-03T01:05:13.757Z,7.95
2023-02-03T01:06:13.723Z,7.95
2023-02-03T01:07:14.187Z,7.95
2023-02-03T01:08:13.697Z,7.95
2023-02-03T01:09:13.705Z,7.95
2023-02-03T01:10:14.275Z,7.95
2023-02-03T01:11:13.912Z,7.95
2023-02-03T01:12:13.654Z,7.95
2023-02-03T01:13:14.362Z,7.95
2023-02-03T01:14:13.652Z,7.96
2023-02-03T01:15:13.665Z,7.96
2023-02-03T01:16:13.705Z,7.97
2023-02-03T01:17:13.620Z,7.97
2023-02-03T01:18:13.756Z,7.97
2023-02-03T01:19:14.168Z,7.97
2023-02-03T01:20:13.590Z,7.97
2023-02-03T01:21:13.849Z,7.96
2023-02-03T01:22:13.821Z,7.95
2023-02-03T01:23:13.532Z,7.95
2023-02-03T01:24:13.525Z,7.94
2023-02-03T01:25:13.492Z,7.93
2023-02-03T01:26:14.007Z,7.92
2023-02-03T01:27:13.471Z,7.92
2023-02-03T01:28:13.545Z,7.91
2023-02-03T01:29:14.105Z,7.90
2023-02-03T01:30:13.447Z,7.89
2023-02-03T01:31:14.246Z,7.88
2023-02-03T01:32:14.193Z,7.87
2023-02-03T01:33:13.394Z,7.86
2023-02-03T01:34:13.894Z,7.86
2023-02-03T01:35:13.419Z,7.85
2023-02-03T01:36:13.374Z,7.85
2023-02-03T01:37:13.574Z,7.84
2023-02-03T01:38:14.197Z,7.84
2023-02-03T01:39:13.331Z,7.84
2023-02-03T01:40:13.424Z,7.84
2023-02-03T01:41:13.306Z,7.84
2023-02-03T01:42:13.319Z,7.84
2023-02-03T01:43:14.140Z,7.84
2023-02-03T01:44:13.284Z,7.84
2023-02-03T01:45:14.053Z,7.84
2023-02-03T01:46:14.008Z,7.84
2023-02-03T01:47:13.242Z,7.84
2023-02-03T01:48:13.237Z,7.84
2023-02-03T01:49:13.221Z,7.84
2023-02-03T01:50:13.254Z,7.84
2023-02-03T01:51:13.179Z,7.84
2023-02-03T01:52:13.217Z,7.84
2023-02-03T01:53:13.205Z,7.84
2023-02-03T01:54:13.173Z,7.83
2023-02-03T01:55:13.192Z,7.83
2023-02-03T01:56:13.146Z,7.82
2023-02-03T01:57:13.119Z,7.81
2023-02-03T01:58:13.144Z,7.81
2023-02-03T01:59:13.212Z,7.80
2023-02-03T02:00:13.091Z,7.80
2023-02-03T02:01:13.117Z,7.80
2023-02-03T02:02:13.131Z,7.79
2023-02-03T02:03:13.110Z,7.79
2023-02-03T02:04:13.070Z,7.79
2023-02-03T02:05:13.175Z,7.78
2023-02-03T02:06:13.205Z,7.78
2023-02-03T02:07:13.021Z,7.77
2023-02-03T02:08:13.221Z,7.77
2023-02-03T02:09:13.283Z,7.76
2023-02-03T02:10:13.321Z,7.75
2023-02-03T02:11:13.207Z,7.75
2023-02-03T02:12:12.988Z,7.74
2023-02-03T02:13:12.927Z,7.74
2023-02-03T02:14:13.145Z,7.73
2023-02-03T02:15:12.908Z,7.73
2023-02-03T02:16:12.999Z,7.72
2023-02-03T02:17:13.173Z,7.72
2023-02-03T02:18:12.882Z,7.71
2023-02-03T02:19:12.873Z,7.71
2023-02-03T02:20:12.872Z,7.71
2023-02-03T02:21:12.838Z,7.70
2023-02-03T02:22:13.229Z,7.70
2023-02-03T02:23:13.217Z,7.69
2023-02-03T02:24:12.820Z,7.69
2023-02-03T02:25:13.217Z,7.69
2023-02-03T02:26:13.591Z,7.69
2023-02-03T02:27:13.226Z,7.68
2023-02-03T02:28:12.855Z,7.68
2023-02-03T02:29:13.263Z,7.68
2023-02-03T02:30:12.997Z,7.68
2023-02-03T02:31:12.814Z,7.67
2023-02-03T02:32:13.110Z,7.67
2023-02-03T02:33:13.109Z,7.67
2023-02-03T02:34:13.457Z,7.67
2023-02-03T02:35:12.795Z,7.66
2023-02-03T02:36:12.675Z,7.66
2023-02-03T02:37:13.229Z,7.66
2023-02-03T02:38:13.231Z,7.66
2023-02-03T02:39:13.245Z,7.66
2023-02-03T02:40:12.636Z,7.66
2023-02-03T02:41:12.629Z,7.65
2023-02-03T02:42:12.640Z,7.65
2023-02-03T02:43:12.644Z,7.65
2023-02-03T02:44:12.602Z,7.65
2023-02-03T02:45:12.695Z,7.65
2023-02-03T02:46:12.792Z,7.66
2023-02-03T02:47:12.748Z,7.66
2023-02-03T02:48:12.771Z,7.67
2023-02-03T02:49:12.512Z,7.67
2023-02-03T02:50:12.525Z,7.68
2023-02-03T02:51:12.562Z,7.68
2023-02-03T02:52:12.614Z,7.69
2023-02-03T02:53:12.636Z,7.69
2023-02-03T02:54:12.663Z,7.71
2023-02-03T02:55:12.691Z,7.74
2023-02-03T02:56:14.135Z,7.76
2023-02-03T02:57:12.750Z,7.79
2023-02-03T02:58:12.784Z,7.82
2023-02-03T02:59:12.800Z,7.86
2023-02-03T03:00:12.644Z,7.89
2023-02-03T03:01:12.414Z,7.92
2023-02-03T03:02:12.820Z,7.95
2023-02-03T03:03:12.928Z,7.98
2023-02-03T03:04:12.391Z,8.00
2023-02-03T03:05:12.900Z,8.03
2023-02-03T03:06:13.022Z,8.07
2023-02-03T03:07:12.650Z,8.12
2023-02-03T03:08:12.308Z,8.16
2023-02-03T03:09:12.309Z,8.19
2023-02-03T03:10:12.309Z,8.21
2023-02-03T03:11:12.284Z,8.24
2023-02-03T03:12:12.267Z,8.25
2023-02-03T03:13:12.240Z,8.26
2023-02-03T03:14:12.279Z,8.27
2023-02-03T03:15:12.260Z,8.27
2023-02-03T03:16:12.279Z,8.28
2023-02-03T03:17:12.203Z,8.30
2023-02-03T03:18:12.269Z,8.31
2023-02-03T03:19:12.193Z,8.32
2023-02-03T03:20:12.196Z,8.33
2023-02-03T03:21:12.154Z,8.34
2023-02-03T03:22:12.177Z,8.35
2023-02-03T03:23:12.116Z,8.35
2023-02-03T03:24:12.145Z,8.36
2023-02-03T03:25:12.089Z,8.36
2023-02-03T03:26:12.271Z,8.37
2023-02-03T03:27:12.075Z,8.37
2023-02-03T03:28:12.168Z,8.37
2023-02-03T03:29:12.062Z,8.37
2023-02-03T03:30:12.095Z,8.38
2023-02-03T03:31:12.373Z,8.39
2023-02-03T03:32:12.037Z,8.39
2023-02-03T03:33:12.037Z,8.40
2023-02-03T03:34:12.277Z,8.40
2023-02-03T03:35:11.980Z,8.41
2023-02-03T03:36:11.983Z,8.41
2023-02-03T03:37:12.011Z,8.41
2023-02-03T03:38:11.983Z,8.42
2023-02-03T03:39:11.944Z,8.42
2023-02-03T03:40:11.976Z,8.43
2023-02-03T03:41:11.912Z,8.44
2023-02-03T03:42:12.135Z,8.44
2023-02-03T03:43:11.965Z,8.45
2023-02-03T03:44:11.904Z,8.46
2023-02-03T03:45:11.864Z,8.47
2023-02-03T03:46:12.262Z,8.48
2023-02-03T03:47:11.856Z,8.48
2023-02-03T03:48:11.851Z,8.48
2023-02-03T03:49:11.839Z,8.48
2023-02-03T03:50:12.283Z,8.48
2023-02-03T03:51:11.796Z,8.48
2023-02-03T03:52:11.867Z,8.48
2023-02-03T03:53:11.801Z,8.48
2023-02-03T03:54:11.807Z,8.48
2023-02-03T03:55:11.758Z,8.49
2023-02-03T03:56:11.782Z,8.50
2023-02-03T03:57:11.741Z,8.50
2023-02-03T03:58:12.298Z,8.50
2023-02-03T03:59:11.719Z,8.50
2023-02-03T04:00:11.745Z,8.50
2023-02-03T04:01:11.717Z,8.50
2023-02-03T04:02:11.859Z,8.49
2023-02-03T04:03:11.714Z,8.49
2023-02-03T04:04:11.666Z,8.50
2023-02-03T04:05:11.665Z,8.50
2023-02-03T04:06:11.657Z,8.50
2023-02-03T04:07:11.614Z,8.50
2023-02-03T04:08:11.641Z,8.50
2023-02-03T04:09:11.600Z,8.51
2023-02-03T04:10:11.604Z,8.51
2023-02-03T04:11:11.563Z,8.51
2023-02-03T04:12:11.565Z,8.51
2023-02-03T04:13:11.566Z,8.52
2023-02-03T04:14:12.310Z,8.53
2023-02-03T04:15:11.549Z,8.53
2023-02-03T04:16:11.633Z,8.54
2023-02-03T04:17:11.537Z,8.55
2023-02-03T04:18:11.645Z,8.55
2023-02-03T04:19:11.982Z,8.54
2023-02-03T04:20:11.482Z,8.54
2023-02-03T04:21:12.307Z,8.53
2023-02-03T04:22:11.492Z,8.53
2023-02-03T04:23:12.220Z,8.52
2023-02-03T04:24:12.329Z,8.52
2023-02-03T04:25:11.417Z,8.52
2023-02-03T04:26:11.448Z,8.52
2023-02-03T04:27:11.478Z,8.52
2023-02-03T04:28:11.499Z,8.51
2023-02-03T04:29:11.534Z,8.51
2023-02-03T04:30:11.369Z,8.51
2023-02-03T04:31:11.457Z,8.51
2023-02-03T04:32:11.436Z,8.51
2023-02-03T04:33:11.331Z,8.50
2023-02-03T04:34:11.347Z,8.50
2023-02-03T04:35:11.346Z,8.49
2023-02-03T04:36:11.287Z,8.49
2023-02-03T04:37:11.377Z,8.48
2023-02-03T04:38:11.284Z,8.48
2023-02-03T04:39:11.265Z,8.47
2023-02-03T04:40:11.268Z,8.47
2023-02-03T04:41:11.326Z,8.46
2023-02-03T04:42:11.331Z,8.45
2023-02-03T04:43:11.202Z,8.44
2023-02-03T04:44:11.227Z,8.43
2023-02-03T04:45:11.215Z,8.43
2023-02-03T04:46:11.392Z,8.42
2023-02-03T04:47:11.330Z,8.42
2023-02-03T04:48:11.730Z,8.43
2023-02-03T04:49:11.122Z,8.44
2023-02-03T04:50:11.335Z,8.45
2023-02-03T04:51:11.118Z,8.46
2023-02-03T04:52:11.106Z,8.46
2023-02-03T04:53:11.191Z,8.47
2023-02-03T04:54:11.090Z,8.47
2023-02-03T04:55:11.061Z,8.47
2023-02-03T04:56:11.917Z,8.48
2023-02-03T04:57:11.336Z,8.48
2023-02-03T04:58:11.119Z,8.48
2023-02-03T04:59:11.328Z,8.48
2023-02-03T05:00:11.042Z,8.49
2023-02-03T05:01:12.215Z,8.49
2023-02-03T05:02:12.446Z,8.49
2023-02-03T05:03:11.016Z,8.50
2023-02-03T05:04:10.989Z,8.50
2023-02-03T05:05:11.352Z,8.51
2023-02-03T05:06:11.339Z,8.52
2023-02-03T05:07:10.924Z,8.53
2023-02-03T05:08:10.929Z,8.54
2023-02-03T05:09:10.897Z,8.55
2023-02-03T05:10:11.375Z,8.55
2023-02-03T05:11:10.928Z,8.56
2023-02-03T05:12:10.897Z,8.57
2023-02-03T05:13:10.896Z,8.58
2023-02-03T05:14:12.304Z,8.58
2023-02-03T05:15:10.851Z,8.58
2023-02-03T05:16:11.020Z,8.58
2023-02-03T05:17:10.828Z,8.58
2023-02-03T05:18:11.085Z,8.59
2023-02-03T05:19:10.785Z,8.59
2023-02-03T05:20:11.164Z,8.59
2023-02-03T05:21:10.993Z,8.59
2023-02-03T05:22:11.223Z,8.59
2023-02-03T05:23:10.754Z,8.59
2023-02-03T05:24:10.753Z,8.59
2023-02-03T05:25:10.723Z,8.60
2023-02-03T05:26:10.790Z,8.61
2023-02-03T05:27:10.692Z,8.61
2023-02-03T05:28:10.892Z,8.62
2023-02-03T05:29:10.863Z,8.63
2023-02-03T05:30:10.891Z,8.63
2023-02-03T05:31:10.804Z,8.64
2023-02-03T05:32:10.675Z,8.64
2023-02-03T05:33:10.723Z,8.66
2023-02-03T05:34:10.988Z,8.68
2023-02-03T05:35:10.618Z,8.69
2023-02-03T05:36:10.760Z,8.70
2023-02-03T05:37:10.658Z,8.71
2023-02-03T05:38:11.098Z,8.71
2023-02-03T05:39:10.571Z,8.71
2023-02-03T05:40:10.535Z,8.71
2023-02-03T05:41:11.187Z,8.71
2023-02-03T05:42:11.200Z,8.70
2023-02-03T05:43:10.532Z,8.70
2023-02-03T05:44:11.274Z,8.70
2023-02-03T05:45:11.278Z,8.69
2023-02-03T05:46:11.346Z,8.69
2023-02-03T05:47:10.507Z,8.68
2023-02-03T05:48:10.450Z,8.68
2023-02-03T05:49:10.903Z,8.67
2023-02-03T05:50:11.370Z,8.67
2023-02-03T05:51:11.386Z,8.67
2023-02-03T05:52:10.765Z,8.67
2023-02-03T05:53:10.437Z,8.66
2023-02-03T05:54:10.397Z,8.67
2023-02-03T05:55:10.382Z,8.67
2023-02-03T05:56:10.356Z,8.67
2023-02-03T05:57:10.388Z,8.68
2023-02-03T05:58:10.369Z,8.69
2023-02-03T05:59:10.348Z,8.70
2023-02-03T06:00:10.384Z,8.71
2023-02-03T06:01:10.379Z,8.72
2023-02-03T06:02:10.396Z,8.73
2023-02-03T06:03:10.381Z,8.75
2023-02-03T06:04:10.343Z,8.75
2023-02-03T06:05:10.309Z,8.76
2023-02-03T06:06:10.232Z,8.76
2023-02-03T06:07:10.253Z,8.76
2023-02-03T06:08:10.382Z,8.76
2023-02-03T06:09:10.243Z,8.76
2023-02-03T06:10:10.387Z,8.77
2023-02-03T06:11:10.214Z,8.78
2023-02-03T06:12:10.173Z,8.79
2023-02-03T06:13:10.880Z,8.80
2023-02-03T06:14:10.151Z,8.81
2023-02-03T06:15:10.173Z,8.82
2023-02-03T06:16:10.235Z,8.82
2023-02-03T06:17:10.145Z,8.83
2023-02-03T06:18:10.139Z,8.83
2023-02-03T06:19:10.109Z,8.83
2023-02-03T06:20:10.098Z,8.83
2023-02-03T06:21:10.108Z,8.83
2023-02-03T06:22:10.064Z,8.83
2023-02-03T06:23:10.053Z,8.82
2023-02-03T06:24:10.288Z,8.82
2023-02-03T06:25:12.688Z,8.81
2023-02-03T06:26:10.331Z,8.81
2023-02-03T06:27:10.025Z,8.80
2023-02-03T06:28:10.051Z,8.80
2023-02-03T06:29:09.993Z,8.79
2023-02-03T06:30:09.972Z,8.79
2023-02-03T06:31:10.051Z,8.78
2023-02-03T06:32:09.939Z,8.77
2023-02-03T06:33:09.957Z,8.76
2023-02-03T06:34:10.428Z,8.75
2023-02-03T06:35:10.301Z,8.75
2023-02-03T06:36:10.029Z,8.75
2023-02-03T06:37:09.883Z,8.75
2023-02-03T06:38:09.898Z,8.76
2023-02-03T06:39:09.874Z,8.76
2023-02-03T06:40:10.012Z,8.77
2023-02-03T06:41:09.875Z,8.77
2023-02-03T06:42:10.067Z,8.77
2023-02-03T06:43:09.855Z,8.77
2023-02-03T06:44:09.796Z,8.78
2023-02-03T06:45:10.173Z,8.79
2023-02-03T06:46:09.869Z,8.81
2023-02-03T06:47:09.779Z,8.82
2023-02-03T06:48:10.265Z,8.83
2023-02-03T06:49:09.787Z,8.83
2023-02-03T06:50:10.337Z,8.83
2023-02-03T06:51:09.727Z,8.83
2023-02-03T06:52:09.730Z,8.82
2023-02-03T06:53:10.468Z,8.82
2023-02-03T06:54:09.682Z,8.82
2023-02-03T06:55:09.711Z,8.83
2023-02-03T06:56:09.690Z,8.83
2023-02-03T06:57:09.659Z,8.84
2023-02-03T06:58:10.430Z,8.84
2023-02-03T06:59:09.671Z,8.84
2023-02-03T07:00:09.605Z,8.85
2023-02-03T07:01:09.726Z,8.85
2023-02-03T07:02:10.437Z,8.86
2023-02-03T07:03:10.430Z,8.87
2023-02-03T07:04:10.435Z,8.88
2023-02-03T07:05:09.618Z,8.89
2023-02-03T07:06:10.377Z,8.90
2023-02-03T07:07:10.425Z,8.91
2023-02-03T07:08:10.431Z,8.92
2023-02-03T07:09:10.437Z,8.92
2023-02-03T07:10:10.436Z,8.93
2023-02-03T07:11:10.409Z,8.93
2023-02-03T07:12:09.509Z,8.94
2023-02-03T07:13:09.476Z,8.95
2023-02-03T07:14:09.454Z,8.95
2023-02-03T07:15:09.458Z,8.95
2023-02-03T07:16:09.507Z,8.95
2023-02-03T07:17:09.436Z,8.96
2023-02-03T07:18:09.434Z,8.96
2023-02-03T07:19:09.412Z,8.97
2023-02-03T07:20:09.414Z,8.97
2023-02-03T07:21:09.389Z,8.97
2023-02-03T07:22:09.436Z,8.97
2023-02-03T07:23:09.436Z,8.97
2023-02-03T07:24:09.331Z,8.98
2023-02-03T07:25:09.502Z,8.99
2023-02-03T07:26:09.454Z,9.00
2023-02-03T07:27:09.340Z,9.00
2023-02-03T07:28:09.533Z,9.01
2023-02-03T07:29:09.287Z,9.02
2023-02-03T07:30:09.445Z,9.03
2023-02-03T07:31:09.319Z,9.03
2023-02-03T07:32:09.272Z,9.04
2023-02-03T07:33:09.271Z,9.05
2023-02-03T07:34:09.459Z,9.07
2023-02-03T07:35:09.242Z,9.10
2023-02-03T07:36:09.438Z,9.12
2023-02-03T07:37:09.222Z,9.14
2023-02-03T07:38:09.443Z,9.14
2023-02-03T07:39:09.176Z,9.14
2023-02-03T07:40:09.142Z,9.14
2023-02-03T07:41:09.482Z,9.14
2023-02-03T07:42:09.130Z,9.14
2023-02-03T07:43:09.450Z,9.14
2023-02-03T07:44:09.461Z,9.14
2023-02-03T07:45:09.106Z,9.14
2023-02-03T07:46:09.523Z,9.14
2023-02-03T07:47:10.065Z,9.15
2023-02-03T07:48:09.073Z,9.15
2023-02-03T07:49:09.459Z,9.15
2023-02-03T07:50:09.041Z,9.15
2023-02-03T07:51:09.448Z,9.14
2023-02-03T07:52:09.014Z,9.14
2023-02-03T07:53:09.023Z,9.15
2023-02-03T07:54:09.102Z,9.15
2023-02-03T07:55:09.008Z,9.16
2023-02-03T07:56:08.972Z,9.16
2023-02-03T07:57:09.453Z,9.17
2023-02-03T07:58:09.171Z,9.17
2023-02-03T07:59:09.461Z,9.17
2023-02-03T08:00:08.939Z,9.18
2023-02-03T08:01:08.955Z,9.18
2023-02-03T08:02:08.984Z,9.18
2023-02-03T08:03:08.901Z,9.18
2023-02-03T08:04:08.881Z,9.19
2023-02-03T08:05:09.123Z,9.19
2023-02-03T08:06:08.849Z,9.20
2023-02-03T08:07:08.857Z,9.20
2023-02-03T08:08:08.834Z,9.21
2023-02-03T08:09:08.829Z,9.21
2023-02-03T08:10:08.988Z,9.21
2023-02-03T08:11:08.809Z,9.20
2023-02-03T08:12:08.784Z,9.20
2023-02-03T08:13:09.046Z,9.20
2023-02-03T08:14:08.789Z,9.20
2023-02-03T08:15:08.807Z,9.20
2023-02-03T08:16:08.859Z,9.22
2023-02-03T08:17:08.744Z,9.23
2023-02-03T08:18:09.208Z,9.24
2023-02-03T08:19:08.703Z,9.24
2023-02-03T08:20:08.683Z,9.24
2023-02-03T08:21:08.717Z,9.24
2023-02-03T08:22:08.664Z,9.24
2023-02-03T08:23:09.126Z,9.24
2023-02-03T08:24:08.659Z,9.24
2023-02-03T08:25:08.643Z,9.24
2023-02-03T08:26:09.393Z,9.24
2023-02-03T08:27:08.659Z,9.24
2023-02-03T08:28:08.625Z,9.25
2023-02-03T08:29:09.478Z,9.27
2023-02-03T08:30:08.947Z,9.28
2023-02-03T08:31:09.499Z,9.29
2023-02-03T08:32:08.577Z,9.29
2023-02-03T08:33:08.573Z,9.29
2023-02-03T08:34:09.493Z,9.30
2023-02-03T08:35:08.520Z,9.30
2023-02-03T08:36:08.504Z,9.30
2023-02-03T08:37:08.522Z,9.30
2023-02-03T08:38:08.494Z,9.30
2023-02-03T08:39:08.492Z,9.31
2023-02-03T08:40:08.524Z,9.31
2023-02-03T08:41:09.444Z,9.31
2023-02-03T08:42:08.443Z,9.31
2023-02-03T08:43:08.475Z,9.32
2023-02-03T08:44:08.417Z,9.32
2023-02-03T08:45:08.500Z,9.33
2023-02-03T08:46:08.571Z,9.33
2023-02-03T08:47:08.402Z,9.33
2023-02-03T08:48:08.394Z,9.33
2023-02-03T08:49:08.483Z,9.33
2023-02-03T08:50:08.503Z,9.32
2023-02-03T08:51:08.326Z,9.32
2023-02-03T08:52:08.314Z,9.32
2023-02-03T08:53:08.505Z,9.33
2023-02-03T08:54:08.511Z,9.33
2023-02-03T08:55:08.503Z,9.33
2023-02-03T08:56:08.265Z,9.33
2023-02-03T08:57:08.523Z,9.33
2023-02-03T08:58:08.242Z,9.33
2023-02-03T08:59:08.525Z,9.33
2023-02-03T09:00:08.258Z,9.33
2023-02-03T09:01:08.308Z,9.33
2023-02-03T09:02:08.301Z,9.34
2023-02-03T09:03:08.197Z,9.34
2023-02-03T09:04:08.350Z,9.36
2023-02-03T09:05:08.209Z,9.39
2023-02-03T09:06:08.418Z,9.43
2023-02-03T09:07:08.176Z,9.46
2023-02-03T09:08:08.130Z,9.48
2023-02-03T09:09:08.489Z,9.49
2023-02-03T09:10:08.499Z,9.49
2023-02-03T09:11:08.144Z,9.50
2023-02-03T09:12:08.526Z,9.50
2023-02-03T09:13:08.523Z,9.50
2023-02-03T09:14:08.511Z,9.50
2023-02-03T09:15:08.522Z,9.50
2023-02-03T09:16:08.524Z,9.50
2023-02-03T09:17:08.559Z,9.50
2023-02-03T09:18:08.518Z,9.51
2023-02-03T09:19:08.032Z,9.51
2023-02-03T09:20:08.559Z,9.52
2023-02-03T09:21:08.188Z,9.52
2023-02-03T09:22:08.517Z,9.53
2023-02-03T09:23:07.951Z,9.53
2023-02-03T09:24:07.987Z,9.54
2023-02-03T09:25:08.005Z,9.54
2023-02-03T09:26:07.911Z,9.54
2023-02-03T09:27:07.992Z,9.55
2023-02-03T09:28:07.924Z,9.55
2023-02-03T09:29:08.154Z,9.55
2023-02-03T09:30:08.185Z,9.56
2023-02-03T09:31:07.880Z,9.56
2023-02-03T09:32:08.272Z,9.57
2023-02-03T09:33:08.298Z,9.58
2023-02-03T09:34:07.826Z,9.58
2023-02-03T09:35:07.876Z,9.58
2023-02-03T09:36:07.793Z,9.58
2023-02-03T09:37:08.473Z,9.58
2023-02-03T09:38:08.202Z,9.58
2023-02-03T09:39:07.783Z,9.58
2023-02-03T09:40:08.549Z,9.57
2023-02-03T09:41:11.733Z,9.57
2023-02-03T09:42:08.548Z,9.56
2023-02-03T09:43:07.722Z,9.56
2023-02-03T09:44:07.866Z,9.55
2023-02-03T09:45:08.647Z,9.55
2023-02-03T09:46:07.950Z,9.55
2023-02-03T09:47:09.171Z,9.55
2023-02-03T09:48:08.657Z,9.55
2023-02-03T09:49:08.552Z,9.55
2023-02-03T09:50:08.454Z,9.54
2023-02-03T09:51:08.351Z,9.54
2023-02-03T09:52:07.613Z,9.54
2023-02-03T09:53:07.601Z,9.54
2023-02-03T09:54:07.978Z,9.54
2023-02-03T09:55:07.582Z,9.54
2023-02-03T09:56:07.595Z,9.55
2023-02-03T09:57:09.882Z,9.56
2023-02-03T09:58:07.541Z,9.56
2023-02-03T09:59:07.515Z,9.56
2023-02-03T10:00:07.518Z,9.56
2023-02-03T10:01:07.603Z,9.55
2023-02-03T10:02:07.564Z,9.54
2023-02-03T10:03:07.493Z,9.54
2023-02-03T10:04:07.476Z,9.53
2023-02-03T10:05:07.469Z,9.53
2023-02-03T10:06:07.467Z,9.52
2023-02-03T10:07:07.438Z,9.51
2023-02-03T10:08:07.479Z,9.50
2023-02-03T10:09:07.399Z,9.49
2023-02-03T10:10:07.422Z,9.48
2023-02-03T10:11:07.406Z,9.47
2023-02-03T10:12:07.568Z,9.46
2023-02-03T10:13:07.556Z,9.45
2023-02-03T10:14:07.364Z,9.44
2023-02-03T10:15:07.329Z,9.43
2023-02-03T10:16:07.321Z,9.43
2023-02-03T10:17:07.422Z,9.42
2023-02-03T10:18:07.288Z,9.41
2023-02-03T10:19:07.259Z,9.39
2023-02-03T10:20:07.272Z,9.38
2023-02-03T10:21:07.294Z,9.37
2023-02-03T10:22:07.373Z,9.36
2023-02-03T10:23:07.282Z,9.36
2023-02-03T10:24:07.271Z,9.35
2023-02-03T10:25:07.208Z,9.34
2023-02-03T10:26:07.222Z,9.33
2023-02-03T10:27:07.197Z,9.32
2023-02-03T10:28:07.228Z,9.31
2023-02-03T10:29:07.562Z,9.30
2023-02-03T10:30:07.195Z,9.29
2023-02-03T10:31:07.249Z,9.28
2023-02-03T10:32:07.334Z,9.27
2023-02-03T10:33:07.149Z,9.26
2023-02-03T10:34:07.239Z,9.26
2023-02-03T10:35:07.097Z,9.27
2023-02-03T10:36:07.578Z,9.26
2023-02-03T10:37:07.576Z,9.25
2023-02-03T10:38:07.123Z,9.24
2023-02-03T10:39:07.071Z,9.24
2023-02-03T10:40:07.070Z,9.23
2023-02-03T10:41:07.593Z,9.22
2023-02-03T10:42:07.584Z,9.22
2023-02-03T10:43:07.021Z,9.21
2023-02-03T10:44:07.590Z,9.22
2023-02-03T10:45:06.986Z,9.22
2023-02-03T10:46:07.012Z,9.22
2023-02-03T10:47:06.939Z,9.21
2023-02-03T10:48:06.949Z,9.21
2023-02-03T10:49:06.952Z,9.21
2023-02-03T10:50:06.953Z,9.21
2023-02-03T10:51:06.906Z,9.20
2023-02-03T10:52:06.897Z,9.20
2023-02-03T10:53:07.141Z,9.19
2023-02-03T10:54:06.895Z,9.18
2023-02-03T10:55:06.862Z,9.17
2023-02-03T10:56:06.857Z,9.16
2023-02-03T10:57:06.881Z,9.15
2023-02-03T10:58:06.829Z,9.14
2023-02-03T10:59:06.819Z,9.14
2023-02-03T11:00:06.840Z,9.14
2023-02-03T11:01:06.935Z,9.13
2023-02-03T11:02:06.781Z,9.12
2023-02-03T11:03:06.784Z,9.10
2023-02-03T11:04:06.754Z,9.08
2023-02-03T11:05:06.756Z,9.06
2023-02-03T11:06:06.759Z,9.04
2023-02-03T11:07:06.710Z,9.03
2023-02-03T11:08:06.733Z,9.02
2023-02-03T11:09:07.514Z,9.01
2023-02-03T11:10:06.670Z,9.00
2023-02-03T11:11:06.687Z,8.99
2023-02-03T11:12:06.667Z,8.98
2023-02-03T11:13:06.641Z,8.97
2023-02-03T11:14:06.668Z,8.97
2023-02-03T11:15:06.619Z,8.96
2023-02-03T11:16:06.718Z,8.95
2023-02-03T11:17:06.604Z,8.95
2023-02-03T11:18:06.603Z,8.95
2023-02-03T11:19:06.576Z,8.95
2023-02-03T11:20:06.569Z,8.95
2023-02-03T11:21:06.593Z,8.95
2023-02-03T11:22:06.553Z,8.95
2023-02-03T11:23:06.547Z,8.96
2023-02-03T11:24:06.539Z,8.97
2023-02-03T11:25:06.507Z,8.97
2023-02-03T11:26:06.517Z,8.98
2023-02-03T11:27:06.511Z,8.99
2023-02-03T11:28:06.494Z,9.00
2023-02-03T11:29:06.629Z,9.02
2023-02-03T11:30:06.486Z,9.04
2023-02-03T11:31:06.491Z,9.05
2023-02-03T11:32:06.563Z,9.07
2023-02-03T11:33:06.407Z,9.09
2023-02-03T11:34:06.437Z,9.10
2023-02-03T11:35:06.383Z,9.12
2023-02-03T11:36:06.427Z,9.14
2023-02-03T11:37:06.631Z,9.15
2023-02-03T11:38:06.356Z,9.17
2023-02-03T11:39:06.374Z,9.19
2023-02-03T11:40:06.344Z,9.21
2023-02-03T11:41:06.355Z,9.23
2023-02-03T11:42:06.345Z,9.25
2023-02-03T11:43:06.318Z,9.26
2023-02-03T11:44:06.315Z,9.28
2023-02-03T11:45:06.266Z,9.30
2023-02-03T11:46:06.308Z,9.31
2023-02-03T11:47:06.267Z,9.33
2023-02-03T11:48:06.240Z,9.36
2023-02-03T11:49:06.248Z,9.38
2023-02-03T11:50:06.241Z,9.40
2023-02-03T11:51:06.188Z,9.42
2023-02-03T11:52:06.219Z,9.44
2023-02-03T11:53:06.180Z,9.46
2023-02-03T11:54:06.197Z,9.48
2023-02-03T11:55:06.153Z,9.49
2023-02-03T11:56:06.169Z,9.51
2023-02-03T11:57:06.144Z,9.52
2023-02-03T11:58:06.151Z,9.53
2023-02-03T11:59:06.620Z,9.55
2023-02-03T12:00:06.114Z,9.56
2023-02-03T12:01:06.864Z,9.57
2023-02-03T12:02:06.103Z,9.58
2023-02-03T12:03:06.073Z,9.58
2023-02-03T12:04:06.151Z,9.59
2023-02-03T12:05:06.042Z,9.60
2023-02-03T12:06:06.040Z,9.61
2023-02-03T12:07:06.012Z,9.61
2023-02-03T12:08:06.016Z,9.62
2023-02-03T12:09:06.091Z,9.63
2023-02-03T12:10:06.041Z,9.64
2023-02-03T12:11:05.955Z,9.65
2023-02-03T12:12:05.968Z,9.66
2023-02-03T12:13:05.953Z,9.67
2023-02-03T12:14:05.929Z,9.68
2023-02-03T12:15:05.918Z,9.69
2023-02-03T12:16:06.019Z,9.70
2023-02-03T12:17:06.381Z,9.70
2023-02-03T12:18:05.906Z,9.71
2023-02-03T12:19:05.871Z,9.72
2023-02-03T12:20:05.872Z,9.72
2023-02-03T12:21:05.863Z,9.73
2023-02-03T12:22:05.844Z,9.74
2023-02-03T12:23:06.537Z,9.75
2023-02-03T12:24:05.834Z,9.75
2023-02-03T12:25:05.821Z,9.77
2023-02-03T12:26:05.802Z,9.78
2023-02-03T12:27:05.782Z,9.80
2023-02-03T12:28:05.857Z,9.81
2023-02-03T12:29:05.802Z,9.82
2023-02-03T12:30:05.761Z,9.83
2023-02-03T12:31:06.044Z,9.84
2023-02-03T12:32:05.871Z,9.84
2023-02-03T12:33:05.741Z,9.85
2023-02-03T12:34:05.727Z,9.86
2023-02-03T12:35:05.698Z,9.87
2023-02-03T12:36:05.707Z,9.87
2023-02-03T12:37:05.676Z,9.88
2023-02-03T12:38:05.660Z,9.89
2023-02-03T12:39:05.673Z,9.90
2023-02-03T12:40:05.640Z,9.90
2023-02-03T12:41:05.606Z,9.91
2023-02-03T12:42:05.681Z,9.91
2023-02-03T12:43:05.583Z,9.92
2023-02-03T12:44:05.586Z,9.94
2023-02-03T12:45:05.585Z,9.95
2023-02-03T12:46:05.664Z,9.97
2023-02-03T12:47:05.663Z,9.97
2023-02-03T12:48:05.537Z,9.97
2023-02-03T12:49:05.584Z,9.97
2023-02-03T12:50:05.516Z,9.98
2023-02-03T12:51:05.496Z,9.98
2023-02-03T12:52:05.684Z,9.98
2023-02-03T12:53:05.464Z,9.98
2023-02-03T12:54:05.472Z,9.98
2023-02-03T12:55:05.467Z,9.98
2023-02-03T12:56:05.837Z,9.99
2023-02-03T12:57:05.676Z,9.99
2023-02-03T12:58:05.723Z,9.99
2023-02-03T12:59:05.400Z,10.00
2023-02-03T13:00:05.400Z,10.00
2023-02-03T13:01:05.722Z,10.00
2023-02-03T13:02:05.414Z,10.00
2023-02-03T13:03:05.688Z,9.99
2023-02-03T13:04:05.372Z,9.99
2023-02-03T13:05:05.666Z,9.99
2023-02-03T13:06:05.670Z,9.98
2023-02-03T13:07:05.325Z,9.98
2023-02-03T13:08:05.334Z,9.99
2023-02-03T13:09:05.692Z,9.99
2023-02-03T13:10:05.317Z,10.00
2023-02-03T13:11:06.047Z,10.00
2023-02-03T13:12:05.267Z,9.99
2023-02-03T13:13:05.679Z,9.99
2023-02-03T13:14:05.682Z,9.99
2023-02-03T13:15:05.206Z,9.98
2023-02-03T13:16:05.253Z,9.97
2023-02-03T13:17:05.198Z,9.96
2023-02-03T13:18:06.233Z,9.95